Ship Status Report: callsign AMOUK20

sailwx.info

Track history (hours):
 
Tides and Currents Weather Stations Pressure Air Temp Water Temp Dewpoint Dewpoint Depression Visibility Wind Speed Wind Dir Waves Ship Positions

Callsign AMOUK20 (name unknown)

Last reported at 2014-Aug-26 23:00 UTC. Time now 2014-Aug-30 08:37 UTC.
Position S 33°54' E 018°30'.

Barometer 1013.3 mb
Air temperature 13.9 ° C

Date/timePositionNaut miles runAvg speedWind from/ knotsBaromVisibWave heightAir tempDewpointWater temp
2014-Aug-26 23:00S 33°54' E 018°30'12 1.7 1013.3 13.9
2014-Aug-26 16:00S 33°48' E 018°18'8 7.8 1015.0 14.4
2014-Aug-26 15:00S 33°54' E 018°12'10 5.0 1014.6 14.4
2014-Aug-26 13:00S 33°54' E 018°00'0 0.0 1015.6 14.4
2014-Aug-26 12:00S 33°54' E 018°00'0 0.0 1016.6 14.3
2014-Aug-26 11:00S 33°54' E 018°00'6 3.0 1016.7 14.6
2014-Aug-26 09:00S 34°00' E 018°00'6 3.0 1018.8 13.7
2014-Aug-26 07:00S 33°54' E 018°00'0 0.0 1019.1 14.0
2014-Aug-26 06:00S 33°54' E 018°00'6 6.0 1018.7 14.4
2014-Aug-26 05:00S 34°00' E 018°00'6 3.0 1018.8 15.5
2014-Aug-26 03:00S 33°54' E 018°00'0 0.0 1018.2 14.9
2014-Aug-26 02:00S 33°54' E 018°00'5 5.0 1018.3 15.1
2014-Aug-26 01:00S 33°54' E 018°06'5 5.0 1018.6 15.2
2014-Aug-26 00:00S 33°54' E 018°00'0 0.0 1018.8 15.3
2014-Aug-25 23:00S 33°54' E 018°00'6 6.0 1018.5 15.3
2014-Aug-25 22:00S 34°00' E 018°00'6 6.0 1018.8 15.2
2014-Aug-25 21:00S 33°54' E 018°00'6 3.0 1018.5 14.7
2014-Aug-25 19:00S 34°00' E 018°00'0 0.0 1017.3 14.3
2014-Aug-25 18:00S 34°00' E 018°00'0 0.0 1016.8 15.6
2014-Aug-25 16:00S 34°00' E 018°00'0 0.0 1015.6 15.6
2014-Aug-25 15:00S 34°00' E 018°00'0 0.0 1015.2 16.0
2014-Aug-25 14:00S 34°00' E 018°00'0 0.0 1015.0 16.0
2014-Aug-25 13:00S 34°00' E 018°00'1313.0 1014.7 16.0
2014-Aug-25 12:00S 34°12' E 017°54'13 6.5 1014.2 15.9
2014-Aug-25 10:00S 34°24' E 017°48'8 7.8 1013.5 17.1
2014-Aug-25 09:00S 34°18' E 017°42'5 5.0 1013.2 17.4
2014-Aug-25 08:00S 34°18' E 017°36'13 6.5 1013.0 18.4
2014-Aug-25 06:00S 34°06' E 017°30'13 6.5 1012.5 16.4
2014-Aug-25 04:00S 33°54' E 017°24'1212.0 1012.0 16.2
2014-Aug-25 03:00S 33°42' E 017°24'6 6.0 1010.8 16.4
2014-Aug-25 02:00S 33°36' E 017°24'8 7.8 1011.1 16.6
2014-Aug-25 01:00S 33°30' E 017°18'8 7.8 1012.0 16.2
2014-Aug-25 00:00S 33°24' E 017°12'6 6.0 1013.4 16.1
2014-Aug-24 23:00S 33°18' E 017°12'8 7.8 1013.6 16.3
2014-Aug-24 22:00S 33°12' E 017°06'8 7.8 1014.6 16.4
2014-Aug-24 21:00S 33°06' E 017°00'8 7.8 1015.3 16.2
2014-Aug-24 20:00S 33°00' E 016°54'8 7.8 1015.9 16.5
2014-Aug-24 19:00S 32°54' E 016°48'8 7.8 1016.1 16.4
2014-Aug-24 18:00S 32°48' E 016°42'6 6.0 1016.4 16.3
2014-Aug-24 17:00S 32°42' E 016°42'8 7.8 1016.3 16.2
2014-Aug-24 16:00S 32°36' E 016°36'8 7.8 1017.0 16.8
2014-Aug-24 15:00S 32°30' E 016°30'16 7.9 1017.3 16.8
2014-Aug-24 13:00S 32°18' E 016°18'6 6.0 1018.5 16.6
2014-Aug-24 12:00S 32°12' E 016°18'8 7.9 1019.1 16.5
2014-Aug-24 11:00S 32°06' E 016°12'6 6.0 1020.1 16.4
2014-Aug-24 10:00S 32°00' E 016°12'8 7.9 1021.0 16.4
2014-Aug-24 09:00S 31°54' E 016°06'13 6.5 1021.5 16.5
2014-Aug-24 07:00S 31°42' E 016°00'1212.0 1021.5 16.5
2014-Aug-24 06:00S 31°30' E 016°00'6 6.0 1021.4 16.0
2014-Aug-24 05:00S 31°24' E 016°00'8 3.9 1021.2 15.8
2014-Aug-24 03:00S 31°18' E 015°54'8 7.9 1021.1 15.6
2014-Aug-24 02:00S 31°12' E 015°48'1211.9 1020.6 15.6
2014-Aug-24 01:00S 31°06' E 015°36'8 7.9 1020.6 16.0
2014-Aug-24 00:00S 31°00' E 015°30'8 7.9 1020.9 15.9
2014-Aug-23 23:00S 30°54' E 015°24'13 6.5 1021.4 16.0
2014-Aug-23 21:00S 30°42' E 015°18'8 7.9 1022.0 16.0
2014-Aug-23 20:00S 30°36' E 015°12'8 7.9 1022.1 16.3
2014-Aug-23 19:00S 30°30' E 015°06'8 7.9 1022.3 16.2
2014-Aug-23 18:00S 30°24' E 015°00'8 7.9 1021.7 16.4
2014-Aug-23 17:00S 30°18' E 014°54'16 7.9 1022.0 16.5
2014-Aug-23 15:00S 30°06' E 014°42'13 6.5 1021.9 16.9
2014-Aug-23 13:00S 29°54' E 014°36'8 7.9 1020.9 17.5
2014-Aug-23 12:00S 29°48' E 014°30'18 9.0 1021.7 17.5
2014-Aug-23 10:00S 29°30' E 014°30'8 8.0 1022.5 17.8
2014-Aug-23 09:00S 29°24' E 014°24'6 6.0 1022.4 17.7
2014-Aug-23 08:00S 29°18' E 014°24'0 0.0 1022.4 17.6
2014-Aug-23 07:00S 29°18' E 014°24'6 6.0 1021.9 17.5
2014-Aug-23 06:00S 29°12' E 014°24'6 6.0 1021.7 16.8
2014-Aug-23 05:00S 29°06' E 014°24'6 6.0 1020.7 16.5
2014-Aug-23 04:00S 29°00' E 014°24'6 6.0 1020.2 16.1
2014-Aug-23 03:00S 28°54' E 014°24'1212.0 1019.9 15.8
2014-Aug-23 02:00S 28°42' E 014°24'6 6.0 1020.0 15.8
2014-Aug-23 01:00S 28°36' E 014°24'6 6.0 1020.2 15.9
2014-Aug-23 00:00S 28°30' E 014°24'12 6.0 1020.3 15.7
2014-Aug-22 22:00S 28°18' E 014°24'6 6.0 1020.0 15.7
2014-Aug-22 21:00S 28°12' E 014°24'13 6.6 1020.6 15.4
2014-Aug-22 19:00S 28°00' E 014°30'1212.0 1019.8 15.3
2014-Aug-22 18:00S 27°48' E 014°30'6 6.0 1019.3 14.9
2014-Aug-22 17:00S 27°42' E 014°30'5 5.3 1018.5 15.1
2014-Aug-22 16:00S 27°42' E 014°24'6 6.0 1018.0 15.2
2014-Aug-22 15:00S 27°36' E 014°24'8 8.0 1017.8 15.3
2014-Aug-22 14:00S 27°30' E 014°18'16 8.0 1017.9 15.3
2014-Aug-22 12:00S 27°18' E 014°06'13 6.6 1018.8 15.4
2014-Aug-22 10:00S 27°06' E 014°00'8 8.0 1020.8 15.4
2014-Aug-22 09:00S 27°00' E 013°54'13 6.6 1020.9 15.2
2014-Aug-22 07:00S 26°48' E 013°48'6 6.0 1020.4 15.1
2014-Aug-22 06:00S 26°42' E 013°48'6 3.0 1020.2 14.7
2014-Aug-22 04:00S 26°36' E 013°48'8 8.1 1019.5 14.2
2014-Aug-22 03:00S 26°30' E 013°42'6 6.0 1019.2 14.0
2014-Aug-22 02:00S 26°24' E 013°42'6 6.0 1019.4 14.0
2014-Aug-22 01:00S 26°18' E 013°42'6 6.0 1019.8 14.2
2014-Aug-22 00:00S 26°12' E 013°42'8 8.1 1019.9 14.3
2014-Aug-21 23:00S 26°06' E 013°36'6 6.0 1020.2 14.5
2014-Aug-21 22:00S 26°00' E 013°36'6 6.0 1020.7 14.5
2014-Aug-21 21:00S 25°54' E 013°36'19 9.4 1020.7 14.6
2014-Aug-21 19:00S 25°36' E 013°30'6 6.0 1020.0 14.1
2014-Aug-21 18:00S 25°30' E 013°30'6 6.0 1019.6 14.2
2014-Aug-21 17:00S 25°24' E 013°30'6 6.0 1019.4 14.2
2014-Aug-21 16:00S 25°18' E 013°30'6 6.0 1019.7 14.3
2014-Aug-21 15:00S 25°12' E 013°30'8 8.1 1019.2 14.3
2014-Aug-21 14:00S 25°06' E 013°24'6 6.0 1019.3 14.4
2014-Aug-21 13:00S 25°00' E 013°24'6 6.0 1019.4 14.8
2014-Aug-21 12:00S 24°54' E 013°24'6 6.0 1019.8 15.1
2014-Aug-21 11:00S 24°48' E 013°24'13 6.6 1020.7 15.3
2014-Aug-21 09:00S 24°36' E 013°18'6 6.0 1022.1 15.7
2014-Aug-21 08:00S 24°30' E 013°18'6 6.0 1022.0 15.6
2014-Aug-21 07:00S 24°24' E 013°18'1212.0 1021.3 15.4
2014-Aug-21 06:00S 24°12' E 013°18'8 8.1 1020.9 15.2
2014-Aug-21 05:00S 24°06' E 013°12'6 6.0 1020.5 15.3
2014-Aug-21 04:00S 24°00' E 013°12'6 6.0 1019.6 15.6
2014-Aug-21 03:00S 23°54' E 013°12'6 6.0 1019.5 15.8
2014-Aug-21 02:00S 23°48' E 013°12'8 8.1 1018.9 16.0
2014-Aug-21 01:00S 23°42' E 013°06'1212.0 1019.3 16.0
2014-Aug-21 00:00S 23°30' E 013°06'6 6.0 1019.5 16.2
2014-Aug-20 23:00S 23°24' E 013°06'6 6.0 1019.7 16.2
2014-Aug-20 22:00S 23°18' E 013°06'8 8.1 1019.9 16.3
2014-Aug-20 21:00S 23°12' E 013°00'6 6.0 1019.5 16.5
2014-Aug-20 20:00S 23°06' E 013°00'6 6.0 1019.5 16.5
2014-Aug-20 19:00S 23°00' E 013°00'1313.2 1019.3 16.7
2014-Aug-20 18:00S 22°48' E 012°54'6 6.0 1018.7 16.7
2014-Aug-20 17:00S 22°42' E 012°54'6 6.0 1018.0 17.0
2014-Aug-20 16:00S 22°36' E 012°54'8 8.2 1017.6 17.1
2014-Aug-20 15:00S 22°30' E 012°48'18 9.0 1017.7 17.1
2014-Aug-20 13:00S 22°12' E 012°48'13 6.6 1018.1 17.3
2014-Aug-20 11:00S 22°00' E 012°42'8 8.2 1019.4 17.3
2014-Aug-20 10:00S 21°54' E 012°36'6 6.0 1019.8 17.6
2014-Aug-20 09:00S 21°48' E 012°36'6 6.0 1020.2 17.4
2014-Aug-20 08:00S 21°42' E 012°36'19 9.4 1020.5 17.0
2014-Aug-20 06:00S 21°24' E 012°30'6 6.0 1019.7 16.5
2014-Aug-20 05:00S 21°18' E 012°30'8 8.2 1019.1 16.8
2014-Aug-20 04:00S 21°12' E 012°24'1212.0 1019.0 16.8
2014-Aug-20 03:00S 21°00' E 012°24'13 6.6 1018.9 16.8
2014-Aug-20 01:00S 20°48' E 012°18'13 6.6 1019.4 17.1
2014-Aug-19 23:00S 20°36' E 012°12'8 8.2 1019.7 17.3
2014-Aug-19 22:00S 20°30' E 012°06'16 8.2 1019.9 17.4
2014-Aug-19 20:00S 20°18' E 011°54'6 6.0 1019.4 17.6
2014-Aug-19 19:00S 20°12' E 011°54'8 8.2 1018.5 17.7
2014-Aug-19 18:00S 20°06' E 011°48'8 8.2 1018.2 17.6
2014-Aug-19 17:00S 20°00' E 011°42'6 6.0 1017.4 17.9
2014-Aug-19 16:00S 19°54' E 011°42'1313.3 1017.2 17.7
2014-Aug-19 15:00S 19°42' E 011°36'13 6.6 1016.4 17.7
2014-Aug-19 13:00S 19°30' E 011°30'6 6.0 1016.2 17.6
2014-Aug-19 12:00S 19°24' E 011°30'1212.0 1016.6 17.6
2014-Aug-19 11:00S 19°12' E 011°30'6 5.7 1017.3 17.6
2014-Aug-19 10:00S 19°12' E 011°24'6 6.0 1018.3 17.7
2014-Aug-19 09:00S 19°06' E 011°24'6 6.0 1018.7 17.8
2014-Aug-19 08:00S 19°00' E 011°24'6 6.0 1018.4 18.6
2014-Aug-19 07:00S 18°54' E 011°24'6 6.0 1017.7 17.9
2014-Aug-19 06:00S 18°48' E 011°24'6 6.0 1017.4 17.3
2014-Aug-19 05:00S 18°42' E 011°24'18 9.0 1017.0 17.9
2014-Aug-19 03:00S 18°24' E 011°24'6 6.0 1016.7 17.6
2014-Aug-19 02:00S 18°18' E 011°24'6 6.0 1016.8 17.5
2014-Aug-19 01:00S 18°12' E 011°24'6 6.0 1017.1 17.9
2014-Aug-19 00:00S 18°06' E 011°24'6 6.0 1017.4 17.5
2014-Aug-18 23:00S 18°00' E 011°24'1212.0 1017.4 17.7
2014-Aug-18 22:00S 17°48' E 011°24'8 8.3 1017.4 17.7
2014-Aug-18 21:00S 17°42' E 011°18'6 6.0 1017.4 17.9
2014-Aug-18 20:00S 17°36' E 011°18'6 6.0 1017.4 17.8
2014-Aug-18 19:00S 17°30' E 011°18'6 6.0 1016.9 17.8
2014-Aug-18 18:00S 17°24' E 011°18'6 6.0 1016.7 14.4
2014-Aug-18 17:00S 17°18' E 011°18'6 6.0 1015.7 14.8
2014-Aug-18 16:00S 17°12' E 011°18'18 9.0 1015.3 15.2
2014-Aug-18 14:00S 16°54' E 011°18'6 6.0 1015.7 15.9
2014-Aug-18 13:00S 16°48' E 011°18'6 6.0 1016.4 16.6
2014-Aug-18 12:00S 16°42' E 011°18'0 0.0 1016.9 17.4
2014-Aug-18 11:00S 16°42' E 011°18'8 8.3 1017.7 17.9
2014-Aug-18 10:00S 16°36' E 011°24'6 6.0 1018.5 17.4
2014-Aug-18 09:00S 16°30' E 011°24'8 8.3 1018.8 17.6
2014-Aug-18 08:00S 16°24' E 011°30'6 6.0 1018.5 17.0
2014-Aug-18 07:00S 16°18' E 011°30'6 6.0 1018.0 16.6
2014-Aug-18 06:00S 16°12' E 011°30'0 0.0 1017.1 16.0
2014-Aug-18 05:00S 16°12' E 011°30'1212.0 1016.6 15.5
2014-Aug-18 04:00S 16°00' E 011°30'6 6.0 1016.4 15.5
2014-Aug-18 03:00S 15°54' E 011°30'1212.0 1016.1 14.8
2014-Aug-18 02:00S 15°42' E 011°30'8 8.3 1016.2 14.9
2014-Aug-18 01:00S 15°36' E 011°36'8 8.3 1016.6 14.9
2014-Aug-18 00:00S 15°30' E 011°42'8 4.2 1017.1 15.2
2014-Aug-17 22:00S 15°24' E 011°48'6 6.0 1017.2 15.8
2014-Aug-17 21:00S 15°18' E 011°48'19 9.5 1017.0 16.3
2014-Aug-17 19:00S 15°00' E 011°54'6 6.0 1016.1 16.7
2014-Aug-17 18:00S 14°54' E 011°54'1313.3 1015.3 16.9
2014-Aug-17 17:00S 14°42' E 012°00'1212.0 1015.0 17.2
2014-Aug-17 16:00S 14°30' E 012°00'1313.3 1014.7 17.1
2014-Aug-17 15:00S 14°18' E 012°06'2412.0 1013.8 17.0
2014-Aug-17 13:00S 13°54' E 012°06'1313.3 1014.1 18.0
2014-Aug-17 12:00S 13°42' E 012°12'1212.0 1015.1 17.4
2014-Aug-17 11:00S 13°30' E 012°12'2713.3 1015.7 16.5
2014-Aug-17 09:00S 13°06' E 012°24'13 6.7 1017.1 18.1
2014-Aug-17 07:00S 12°54' E 012°30'8 8.4 1016.6 18.2
2014-Aug-17 06:00S 12°48' E 012°36'8 8.4 1016.2 18.4
2014-Aug-17 05:00S 12°42' E 012°42'8 8.4 1015.7 18.1
2014-Aug-17 04:00S 12°36' E 012°48'6 5.9 1015.1 16.9
2014-Aug-17 03:00S 12°36' E 012°54'8 8.4 1014.7 16.5
2014-Aug-17 02:00S 12°30' E 013°00'8 8.4 1014.8 16.9
2014-Aug-17 01:00S 12°24' E 013°06'8 8.4 1014.9 17.7
2014-Aug-17 00:00S 12°18' E 013°12'6 5.9 1015.1 18.0
2014-Aug-16 23:00S 12°18' E 013°18'   1015.5 18.3
Track history (hours):
 
Tides and Currents Weather Stations Pressure Air Temp Water Temp Dewpoint Dewpoint Depression Visibility Wind Speed Wind Dir Waves Ship Positions

Callsign AMOUK20 (name unknown)

Last reported at 2014-Aug-26 23:00 UTC. Time now 2014-Aug-30 08:37 UTC.
Position S 33°54' E 018°30'.

Barometer 1013.3 mb
Air temperature 13.9 ° C

Date/timePositionNaut miles runAvg speedWind from/ knotsBaromVisibWave heightAir tempDewpointWater temp
2014-Aug-26 23:00S 33°54' E 018°30'12 1.7 1013.3 13.9
2014-Aug-26 16:00S 33°48' E 018°18'8 7.8 1015.0 14.4
2014-Aug-26 15:00S 33°54' E 018°12'10 5.0 1014.6 14.4
2014-Aug-26 13:00S 33°54' E 018°00'0 0.0 1015.6 14.4
2014-Aug-26 12:00S 33°54' E 018°00'0 0.0 1016.6 14.3
2014-Aug-26 11:00S 33°54' E 018°00'6 3.0 1016.7 14.6
2014-Aug-26 09:00S 34°00' E 018°00'6 3.0 1018.8 13.7
2014-Aug-26 07:00S 33°54' E 018°00'0 0.0 1019.1 14.0
2014-Aug-26 06:00S 33°54' E 018°00'6 6.0 1018.7 14.4
2014-Aug-26 05:00S 34°00' E 018°00'6 3.0 1018.8 15.5
2014-Aug-26 03:00S 33°54' E 018°00'0 0.0 1018.2 14.9
2014-Aug-26 02:00S 33°54' E 018°00'5 5.0 1018.3 15.1
2014-Aug-26 01:00S 33°54' E 018°06'5 5.0 1018.6 15.2
2014-Aug-26 00:00S 33°54' E 018°00'0 0.0 1018.8 15.3
2014-Aug-25 23:00S 33°54' E 018°00'6 6.0 1018.5 15.3
2014-Aug-25 22:00S 34°00' E 018°00'6 6.0 1018.8 15.2
2014-Aug-25 21:00S 33°54' E 018°00'6 3.0 1018.5 14.7
2014-Aug-25 19:00S 34°00' E 018°00'0 0.0 1017.3 14.3
2014-Aug-25 18:00S 34°00' E 018°00'0 0.0 1016.8 15.6
2014-Aug-25 16:00S 34°00' E 018°00'0 0.0 1015.6 15.6
2014-Aug-25 15:00S 34°00' E 018°00'0 0.0 1015.2 16.0
2014-Aug-25 14:00S 34°00' E 018°00'0 0.0 1015.0 16.0
2014-Aug-25 13:00S 34°00' E 018°00'1313.0 1014.7 16.0
2014-Aug-25 12:00S 34°12' E 017°54'13 6.5 1014.2 15.9
2014-Aug-25 10:00S 34°24' E 017°48'8 7.8 1013.5 17.1
2014-Aug-25 09:00S 34°18' E 017°42'5 5.0 1013.2 17.4
2014-Aug-25 08:00S 34°18' E 017°36'13 6.5 1013.0 18.4
2014-Aug-25 06:00S 34°06' E 017°30'13 6.5 1012.5 16.4
2014-Aug-25 04:00S 33°54' E 017°24'1212.0 1012.0 16.2
2014-Aug-25 03:00S 33°42' E 017°24'6 6.0 1010.8 16.4
2014-Aug-25 02:00S 33°36' E 017°24'8 7.8 1011.1 16.6
2014-Aug-25 01:00S 33°30' E 017°18'8 7.8 1012.0 16.2
2014-Aug-25 00:00S 33°24' E 017°12'6 6.0 1013.4 16.1
2014-Aug-24 23:00S 33°18' E 017°12'8 7.8 1013.6 16.3
2014-Aug-24 22:00S 33°12' E 017°06'8 7.8 1014.6 16.4
2014-Aug-24 21:00S 33°06' E 017°00'8 7.8 1015.3 16.2
2014-Aug-24 20:00S 33°00' E 016°54'8 7.8 1015.9 16.5
2014-Aug-24 19:00S 32°54' E 016°48'8 7.8 1016.1 16.4
2014-Aug-24 18:00S 32°48' E 016°42'6 6.0 1016.4 16.3
2014-Aug-24 17:00S 32°42' E 016°42'8 7.8 1016.3 16.2
2014-Aug-24 16:00S 32°36' E 016°36'8 7.8 1017.0 16.8
2014-Aug-24 15:00S 32°30' E 016°30'16 7.9 1017.3 16.8
2014-Aug-24 13:00S 32°18' E 016°18'6 6.0 1018.5 16.6
2014-Aug-24 12:00S 32°12' E 016°18'8 7.9 1019.1 16.5
2014-Aug-24 11:00S 32°06' E 016°12'6 6.0 1020.1 16.4
2014-Aug-24 10:00S 32°00' E 016°12'8 7.9 1021.0 16.4
2014-Aug-24 09:00S 31°54' E 016°06'13 6.5 1021.5 16.5
2014-Aug-24 07:00S 31°42' E 016°00'1212.0 1021.5 16.5
2014-Aug-24 06:00S 31°30' E 016°00'6 6.0 1021.4 16.0
2014-Aug-24 05:00S 31°24' E 016°00'8 3.9 1021.2 15.8
2014-Aug-24 03:00S 31°18' E 015°54'8 7.9 1021.1 15.6
2014-Aug-24 02:00S 31°12' E 015°48'1211.9 1020.6 15.6
2014-Aug-24 01:00S 31°06' E 015°36'8 7.9 1020.6 16.0
2014-Aug-24 00:00S 31°00' E 015°30'8 7.9 1020.9 15.9
2014-Aug-23 23:00S 30°54' E 015°24'13 6.5 1021.4 16.0
2014-Aug-23 21:00S 30°42' E 015°18'8 7.9 1022.0 16.0
2014-Aug-23 20:00S 30°36' E 015°12'8 7.9 1022.1 16.3
2014-Aug-23 19:00S 30°30' E 015°06'8 7.9 1022.3 16.2
2014-Aug-23 18:00S 30°24' E 015°00'8 7.9 1021.7 16.4
2014-Aug-23 17:00S 30°18' E 014°54'16 7.9 1022.0 16.5
2014-Aug-23 15:00S 30°06' E 014°42'13 6.5 1021.9 16.9
2014-Aug-23 13:00S 29°54' E 014°36'8 7.9 1020.9 17.5
2014-Aug-23 12:00S 29°48' E 014°30'18 9.0 1021.7 17.5
2014-Aug-23 10:00S 29°30' E 014°30'8 8.0 1022.5 17.8
2014-Aug-23 09:00S 29°24' E 014°24'6 6.0 1022.4 17.7
2014-Aug-23 08:00S 29°18' E 014°24'0 0.0 1022.4 17.6
2014-Aug-23 07:00S 29°18' E 014°24'6 6.0 1021.9 17.5
2014-Aug-23 06:00S 29°12' E 014°24'6 6.0 1021.7 16.8
2014-Aug-23 05:00S 29°06' E 014°24'6 6.0 1020.7 16.5
2014-Aug-23 04:00S 29°00' E 014°24'6 6.0 1020.2 16.1
2014-Aug-23 03:00S 28°54' E 014°24'1212.0 1019.9 15.8
2014-Aug-23 02:00S 28°42' E 014°24'6 6.0 1020.0 15.8
2014-Aug-23 01:00S 28°36' E 014°24'6 6.0 1020.2 15.9
2014-Aug-23 00:00S 28°30' E 014°24'12 6.0 1020.3 15.7
2014-Aug-22 22:00S 28°18' E 014°24'6 6.0 1020.0 15.7
2014-Aug-22 21:00S 28°12' E 014°24'13 6.6 1020.6 15.4
2014-Aug-22 19:00S 28°00' E 014°30'1212.0 1019.8 15.3
2014-Aug-22 18:00S 27°48' E 014°30'6 6.0 1019.3 14.9
2014-Aug-22 17:00S 27°42' E 014°30'5 5.3 1018.5 15.1
2014-Aug-22 16:00S 27°42' E 014°24'6 6.0 1018.0 15.2
2014-Aug-22 15:00S 27°36' E 014°24'8 8.0 1017.8 15.3
2014-Aug-22 14:00S 27°30' E 014°18'16 8.0 1017.9 15.3
2014-Aug-22 12:00S 27°18' E 014°06'13 6.6 1018.8 15.4
2014-Aug-22 10:00S 27°06' E 014°00'8 8.0 1020.8 15.4
2014-Aug-22 09:00S 27°00' E 013°54'13 6.6 1020.9 15.2
2014-Aug-22 07:00S 26°48' E 013°48'6 6.0 1020.4 15.1
2014-Aug-22 06:00S 26°42' E 013°48'6 3.0 1020.2 14.7
2014-Aug-22 04:00S 26°36' E 013°48'8 8.1 1019.5 14.2
2014-Aug-22 03:00S 26°30' E 013°42'6 6.0 1019.2 14.0
2014-Aug-22 02:00S 26°24' E 013°42'6 6.0 1019.4 14.0
2014-Aug-22 01:00S 26°18' E 013°42'6 6.0 1019.8 14.2
2014-Aug-22 00:00S 26°12' E 013°42'8 8.1 1019.9 14.3
2014-Aug-21 23:00S 26°06' E 013°36'6 6.0 1020.2 14.5
2014-Aug-21 22:00S 26°00' E 013°36'6 6.0 1020.7 14.5
2014-Aug-21 21:00S 25°54' E 013°36'19 9.4 1020.7 14.6
2014-Aug-21 19:00S 25°36' E 013°30'6 6.0 1020.0 14.1
2014-Aug-21 18:00S 25°30' E 013°30'6 6.0 1019.6 14.2
2014-Aug-21 17:00S 25°24' E 013°30'6 6.0 1019.4 14.2
2014-Aug-21 16:00S 25°18' E 013°30'6 6.0 1019.7 14.3
2014-Aug-21 15:00S 25°12' E 013°30'8 8.1 1019.2 14.3
2014-Aug-21 14:00S 25°06' E 013°24'6 6.0 1019.3 14.4
2014-Aug-21 13:00S 25°00' E 013°24'6 6.0 1019.4 14.8
2014-Aug-21 12:00S 24°54' E 013°24'6 6.0 1019.8 15.1
2014-Aug-21 11:00S 24°48' E 013°24'13 6.6 1020.7 15.3
2014-Aug-21 09:00S 24°36' E 013°18'6 6.0 1022.1 15.7
2014-Aug-21 08:00S 24°30' E 013°18'6 6.0 1022.0 15.6
2014-Aug-21 07:00S 24°24' E 013°18'1212.0 1021.3 15.4
2014-Aug-21 06:00S 24°12' E 013°18'8 8.1 1020.9 15.2
2014-Aug-21 05:00S 24°06' E 013°12'6 6.0 1020.5 15.3
2014-Aug-21 04:00S 24°00' E 013°12'6 6.0 1019.6 15.6
2014-Aug-21 03:00S 23°54' E 013°12'6 6.0 1019.5 15.8
2014-Aug-21 02:00S 23°48' E 013°12'8 8.1 1018.9 16.0
2014-Aug-21 01:00S 23°42' E 013°06'1212.0 1019.3 16.0
2014-Aug-21 00:00S 23°30' E 013°06'6 6.0 1019.5 16.2
2014-Aug-20 23:00S 23°24' E 013°06'6 6.0 1019.7 16.2
2014-Aug-20 22:00S 23°18' E 013°06'8 8.1 1019.9 16.3
2014-Aug-20 21:00S 23°12' E 013°00'6 6.0 1019.5 16.5
2014-Aug-20 20:00S 23°06' E 013°00'6 6.0 1019.5 16.5
2014-Aug-20 19:00S 23°00' E 013°00'1313.2 1019.3 16.7
2014-Aug-20 18:00S 22°48' E 012°54'6 6.0 1018.7 16.7
2014-Aug-20 17:00S 22°42' E 012°54'6 6.0 1018.0 17.0
2014-Aug-20 16:00S 22°36' E 012°54'8 8.2 1017.6 17.1
2014-Aug-20 15:00S 22°30' E 012°48'18 9.0 1017.7 17.1
2014-Aug-20 13:00S 22°12' E 012°48'13 6.6 1018.1 17.3
2014-Aug-20 11:00S 22°00' E 012°42'8 8.2 1019.4 17.3
2014-Aug-20 10:00S 21°54' E 012°36'6 6.0 1019.8 17.6
2014-Aug-20 09:00S 21°48' E 012°36'6 6.0 1020.2 17.4
2014-Aug-20 08:00S 21°42' E 012°36'19 9.4 1020.5 17.0
2014-Aug-20 06:00S 21°24' E 012°30'6 6.0 1019.7 16.5
2014-Aug-20 05:00S 21°18' E 012°30'8 8.2 1019.1 16.8
2014-Aug-20 04:00S 21°12' E 012°24'1212.0 1019.0 16.8
2014-Aug-20 03:00S 21°00' E 012°24'13 6.6 1018.9 16.8
2014-Aug-20 01:00S 20°48' E 012°18'13 6.6 1019.4 17.1
2014-Aug-19 23:00S 20°36' E 012°12'8 8.2 1019.7 17.3
2014-Aug-19 22:00S 20°30' E 012°06'16 8.2 1019.9 17.4
2014-Aug-19 20:00S 20°18' E 011°54'6 6.0 1019.4 17.6
2014-Aug-19 19:00S 20°12' E 011°54'8 8.2 1018.5 17.7
2014-Aug-19 18:00S 20°06' E 011°48'8 8.2 1018.2 17.6
2014-Aug-19 17:00S 20°00' E 011°42'6 6.0 1017.4 17.9
2014-Aug-19 16:00S 19°54' E 011°42'1313.3 1017.2 17.7
2014-Aug-19 15:00S 19°42' E 011°36'13 6.6 1016.4 17.7
2014-Aug-19 13:00S 19°30' E 011°30'6 6.0 1016.2 17.6
2014-Aug-19 12:00S 19°24' E 011°30'1212.0 1016.6 17.6
2014-Aug-19 11:00S 19°12' E 011°30'6 5.7 1017.3 17.6
2014-Aug-19 10:00S 19°12' E 011°24'6 6.0 1018.3 17.7
2014-Aug-19 09:00S 19°06' E 011°24'6 6.0 1018.7 17.8
2014-Aug-19 08:00S 19°00' E 011°24'6 6.0 1018.4 18.6
2014-Aug-19 07:00S 18°54' E 011°24'6 6.0 1017.7 17.9
2014-Aug-19 06:00S 18°48' E 011°24'6 6.0 1017.4 17.3
2014-Aug-19 05:00S 18°42' E 011°24'18 9.0 1017.0 17.9
2014-Aug-19 03:00S 18°24' E 011°24'6 6.0 1016.7 17.6
2014-Aug-19 02:00S 18°18' E 011°24'6 6.0 1016.8 17.5
2014-Aug-19 01:00S 18°12' E 011°24'6 6.0 1017.1 17.9
2014-Aug-19 00:00S 18°06' E 011°24'6 6.0 1017.4 17.5
2014-Aug-18 23:00S 18°00' E 011°24'1212.0 1017.4 17.7
2014-Aug-18 22:00S 17°48' E 011°24'8 8.3 1017.4 17.7
2014-Aug-18 21:00S 17°42' E 011°18'6 6.0 1017.4 17.9
2014-Aug-18 20:00S 17°36' E 011°18'6 6.0 1017.4 17.8
2014-Aug-18 19:00S 17°30' E 011°18'6 6.0 1016.9 17.8
2014-Aug-18 18:00S 17°24' E 011°18'6 6.0 1016.7 14.4
2014-Aug-18 17:00S 17°18' E 011°18'6 6.0 1015.7 14.8
2014-Aug-18 16:00S 17°12' E 011°18'18 9.0 1015.3 15.2
2014-Aug-18 14:00S 16°54' E 011°18'6 6.0 1015.7 15.9
2014-Aug-18 13:00S 16°48' E 011°18'6 6.0 1016.4 16.6
2014-Aug-18 12:00S 16°42' E 011°18'0 0.0 1016.9 17.4
2014-Aug-18 11:00S 16°42' E 011°18'8 8.3 1017.7 17.9
2014-Aug-18 10:00S 16°36' E 011°24'6 6.0 1018.5 17.4
2014-Aug-18 09:00S 16°30' E 011°24'8 8.3 1018.8 17.6
2014-Aug-18 08:00S 16°24' E 011°30'6 6.0 1018.5 17.0
2014-Aug-18 07:00S 16°18' E 011°30'6 6.0 1018.0 16.6
2014-Aug-18 06:00S 16°12' E 011°30'0 0.0 1017.1 16.0
2014-Aug-18 05:00S 16°12' E 011°30'1212.0 1016.6 15.5
2014-Aug-18 04:00S 16°00' E 011°30'6 6.0 1016.4 15.5
2014-Aug-18 03:00S 15°54' E 011°30'1212.0 1016.1 14.8
2014-Aug-18 02:00S 15°42' E 011°30'8 8.3 1016.2 14.9
2014-Aug-18 01:00S 15°36' E 011°36'8 8.3 1016.6 14.9
2014-Aug-18 00:00S 15°30' E 011°42'8 4.2 1017.1 15.2
2014-Aug-17 22:00S 15°24' E 011°48'6 6.0 1017.2 15.8
2014-Aug-17 21:00S 15°18' E 011°48'19 9.5 1017.0 16.3
2014-Aug-17 19:00S 15°00' E 011°54'6 6.0 1016.1 16.7
2014-Aug-17 18:00S 14°54' E 011°54'1313.3 1015.3 16.9
2014-Aug-17 17:00S 14°42' E 012°00'1212.0 1015.0 17.2
2014-Aug-17 16:00S 14°30' E 012°00'1313.3 1014.7 17.1
2014-Aug-17 15:00S 14°18' E 012°06'2412.0 1013.8 17.0
2014-Aug-17 13:00S 13°54' E 012°06'1313.3 1014.1 18.0
2014-Aug-17 12:00S 13°42' E 012°12'1212.0 1015.1 17.4
2014-Aug-17 11:00S 13°30' E 012°12'2713.3 1015.7 16.5
2014-Aug-17 09:00S 13°06' E 012°24'13 6.7 1017.1 18.1
2014-Aug-17 07:00S 12°54' E 012°30'8 8.4 1016.6 18.2
2014-Aug-17 06:00S 12°48' E 012°36'8 8.4 1016.2 18.4
2014-Aug-17 05:00S 12°42' E 012°42'8 8.4 1015.7 18.1
2014-Aug-17 04:00S 12°36' E 012°48'6 5.9 1015.1 16.9
2014-Aug-17 03:00S 12°36' E 012°54'8 8.4 1014.7 16.5
2014-Aug-17 02:00S 12°30' E 013°00'8 8.4 1014.8 16.9
2014-Aug-17 01:00S 12°24' E 013°06'8 8.4 1014.9 17.7
2014-Aug-17 00:00S 12°18' E 013°12'6 5.9 1015.1 18.0
2014-Aug-16 23:00S 12°18' E 013°18'   1015.5 18.3

Dump ship's entire track history